Time;durP1;ratioP1;P1;durP2;ratioP2;P2;SDS_P1;SDS_P2;PMS_P1;PMS_P2;Temp;Humidity;BMP_temperature;BMP_pressure;BME280_temperature;BME280_humidity;BME280_pressure;Samples;Min_cycle;Max_cycle;Signal;HPM_P1;HPM_P2
2021/05/25 00:01:12;;;;;;;1.67;1.07;;;10.40;99.90;;;;;;5113896;28;20200;-77
2021/05/25 00:03:38;;;;;;;1.77;1.00;;;10.40;99.90;;;;;;5080477;28;20190;-77
2021/05/25 00:06:05;;;;;;;1.43;0.97;;;10.40;99.90;;;;;;5097099;28;20179;-77
2021/05/25 00:08:30;;;;;;;1.53;1.00;;;10.40;99.90;;;;;;5080156;28;20178;-78
2021/05/25 00:10:56;;;;;;;1.70;0.97;;;10.30;99.90;;;;;;5096704;28;20198;-78
2021/05/25 00:13:21;;;;;;;1.23;1.00;;;10.30;99.90;;;;;;5097429;28;20173;-78
2021/05/25 00:15:52;;;;;;;0.73;0.73;;;10.30;99.90;;;;;;5113849;28;20166;-77
2021/05/25 00:18:18;;;;;;;0.83;0.70;;;10.30;99.90;;;;;;5097648;28;20168;-77
2021/05/25 00:20:44;;;;;;;0.90;0.73;;;10.20;99.90;;;;;;5079893;28;20198;-77
2021/05/25 00:23:09;;;;;;;0.90;0.70;;;10.20;99.90;;;;;;5096652;28;20181;-78
2021/05/25 00:25:35;;;;;;;0.70;0.70;;;10.10;99.90;;;;;;5113542;28;20261;-78
2021/05/25 00:28:00;;;;;;;1.43;0.80;;;10.00;99.90;;;;;;5079505;28;20306;-77
2021/05/25 00:30:26;;;;;;;0.87;0.80;;;10.00;99.90;;;;;;5096071;28;20241;-77
2021/05/25 00:32:52;;;;;;;0.80;0.80;;;10.00;99.90;;;;;;5096466;28;20179;-77
2021/05/25 00:35:17;;;;;;;0.80;0.80;;;10.00;99.90;;;;;;5096737;28;20181;-77
2021/05/25 00:37:43;;;;;;;2.37;0.80;;;10.00;99.90;;;;;;5096793;28;20644;-77
2021/05/25 00:40:10;;;;;;;0.83;0.57;;;10.00;99.90;;;;;;5079062;28;20220;-77
2021/05/25 00:42:36;;;;;;;1.90;0.80;;;10.00;99.90;;;;;;5113323;28;20239;-77
2021/05/25 00:45:02;;;;;;;0.70;0.70;;;10.00;99.90;;;;;;5096277;28;20560;-77
2021/05/25 00:47:33;;;;;;;0.50;0.50;;;10.00;99.90;;;;;;5113077;28;20184;-77
2021/05/25 00:50:21;;;;;;;0.50;0.50;;;10.00;99.90;;;;;;5096060;28;20635;-77
2021/05/25 00:52:47;;;;;;;0.37;0.37;;;10.00;99.90;;;;;;5099083;28;20196;-78
2021/05/25 00:55:24;;;;;;;1.30;0.57;;;10.00;99.90;;;;;;5096213;28;20248;-78
2021/05/25 00:57:51;;;;;;;0.87;0.57;;;10.00;99.90;;;;;;5079347;28;20206;-77
2021/05/25 01:00:19;;;;;;;0.47;0.40;;;10.00;99.90;;;;;;5095568;28;20197;-77
2021/05/25 01:02:45;;;;;;;0.47;0.40;;;9.90;99.90;;;;;;5095878;28;20266;-77
2021/05/25 01:05:11;;;;;;;0.50;0.50;;;9.90;99.90;;;;;;5095654;28;20338;-77
2021/05/25 01:07:37;;;;;;;1.27;0.50;;;9.90;99.90;;;;;;5112701;28;20213;-77
2021/05/25 01:10:05;;;;;;;1.43;0.70;;;9.90;99.90;;;;;;5078853;28;20599;-77
2021/05/25 01:12:35;;;;;;;1.37;0.70;;;9.90;99.90;;;;;;5097379;28;20193;-78
2021/05/25 01:15:05;;;;;;;0.50;0.50;;;9.90;99.90;;;;;;5081205;28;20178;-77
2021/05/25 01:17:31;;;;;;;0.60;0.60;;;9.90;99.90;;;;;;5081549;28;20177;-78
2021/05/25 01:19:58;;;;;;;0.63;0.50;;;9.90;99.90;;;;;;5096592;28;20630;-78
2021/05/25 01:22:24;;;;;;;0.63;0.57;;;9.90;99.90;;;;;;5097101;28;20210;-77
2021/05/25 01:24:50;;;;;;;0.50;0.50;;;9.90;99.90;;;;;;5096478;28;20186;-77
2021/05/25 01:27:15;;;;;;;0.60;0.50;;;9.90;99.90;;;;;;5078424;28;20192;-77
2021/05/25 01:29:42;;;;;;;0.83;0.70;;;9.90;99.90;;;;;;5094977;28;20295;-77
2021/05/25 01:32:08;;;;;;;1.60;0.53;;;9.90;99.90;;;;;;5078498;28;20211;-77
2021/05/25 01:34:36;;;;;;;1.37;0.70;;;9.90;99.90;;;;;;5095701;28;20172;-77
2021/05/25 01:37:04;;;;;;;0.57;0.50;;;9.80;99.90;;;;;;5078726;28;20652;-77
2021/05/25 01:39:31;;;;;;;0.80;0.60;;;9.80;99.90;;;;;;5078206;28;20257;-77
2021/05/25 01:41:57;;;;;;;0.80;0.63;;;9.80;99.90;;;;;;5095454;28;20215;-77
2021/05/25 01:44:24;;;;;;;2.37;0.67;;;9.80;99.90;;;;;;5078601;28;20222;-77
2021/05/25 01:46:49;;;;;;;0.90;0.70;;;9.80;99.90;;;;;;5078654;28;20641;-77
2021/05/25 01:49:18;;;;;;;0.93;0.87;;;9.80;99.90;;;;;;5111699;28;20211;-77
2021/05/25 01:51:51;;;;;;;2.23;0.70;;;9.80;99.90;;;;;;5078257;28;20285;-77
2021/05/25 01:54:17;;;;;;;1.07;0.90;;;9.80;99.90;;;;;;5094451;28;20172;-77
2021/05/25 01:56:42;;;;;;;0.97;0.70;;;9.80;99.90;;;;;;5095129;28;20179;-77
2021/05/25 01:59:08;;;;;;;1.87;0.80;;;9.80;99.90;;;;;;5077934;28;20237;-77
2021/05/25 02:01:36;;;;;;;2.00;0.60;;;9.80;99.90;;;;;;5095235;28;20196;-77
2021/05/25 02:04:02;;;;;;;0.93;0.50;;;9.80;99.90;;;;;;5095373;28;20261;-77
2021/05/25 02:06:28;;;;;;;0.70;0.70;;;9.80;99.90;;;;;;5095050;28;20184;-77
2021/05/25 02:08:55;;;;;;;1.17;0.70;;;9.90;99.90;;;;;;5077591;28;20212;-77
2021/05/25 02:11:22;;;;;;;0.60;0.60;;;9.80;99.90;;;;;;5077952;28;20680;-77
2021/05/25 02:13:47;;;;;;;0.70;0.60;;;9.80;99.90;;;;;;5077798;28;20191;-77
2021/05/25 02:16:14;;;;;;;0.53;0.50;;;9.70;99.90;;;;;;5094474;28;20176;-77
2021/05/25 02:18:42;;;;;;;0.60;0.60;;;9.70;99.90;;;;;;5111648;28;20532;-77
2021/05/25 02:21:10;;;;;;;1.37;0.63;;;9.70;99.90;;;;;;5077061;28;20198;-77
2021/05/25 02:23:37;;;;;;;0.67;0.60;;;9.70;99.90;;;;;;5094649;28;20169;-77
2021/05/25 02:26:03;;;;;;;0.70;0.50;;;9.70;99.90;;;;;;5094798;28;20178;-77
2021/05/25 02:28:29;;;;;;;0.60;0.60;;;9.70;99.90;;;;;;5111063;28;20572;-77
2021/05/25 02:30:55;;;;;;;0.70;0.60;;;9.70;99.90;;;;;;5094672;28;20200;-77
2021/05/25 02:33:22;;;;;;;0.97;0.70;;;9.60;99.90;;;;;;5094544;28;20209;-77
2021/05/25 02:35:49;;;;;;;1.13;0.80;;;9.60;99.90;;;;;;5077541;28;20174;-77
2021/05/25 02:38:14;;;;;;;0.87;0.87;;;9.50;99.90;;;;;;5077396;28;20214;-77
2021/05/25 02:40:41;;;;;;;1.17;0.77;;;9.50;99.90;;;;;;5077320;28;20661;-77
2021/05/25 02:43:07;;;;;;;0.80;0.70;;;9.60;99.90;;;;;;5077596;28;20198;-77
2021/05/25 02:45:33;;;;;;;2.07;0.90;;;9.60;99.90;;;;;;5094424;28;20181;-77
2021/05/25 02:47:59;;;;;;;0.93;0.80;;;9.50;99.90;;;;;;5094360;28;20177;-78
2021/05/25 02:50:25;;;;;;;0.70;0.70;;;9.50;99.90;;;;;;5093645;28;20238;-77
2021/05/25 02:52:51;;;;;;;0.87;0.70;;;9.50;99.90;;;;;;5077232;28;20217;-77
2021/05/25 02:55:25;;;;;;;0.60;0.60;;;9.50;99.90;;;;;;5094102;28;20181;-78
2021/05/25 02:57:53;;;;;;;1.20;0.70;;;9.40;99.90;;;;;;5095165;28;20185;-77
2021/05/25 03:00:23;;;;;;;0.90;0.67;;;9.40;99.90;;;;;;5110839;28;20200;-77
2021/05/25 03:02:49;;;;;;;1.30;0.70;;;9.40;99.90;;;;;;5094042;28;20192;-77
2021/05/25 03:05:16;;;;;;;1.13;0.73;;;9.40;99.90;;;;;;5077572;28;20176;-78
2021/05/25 03:07:42;;;;;;;0.90;0.60;;;9.40;99.90;;;;;;5098440;28;20406;-77
2021/05/25 03:10:08;;;;;;;1.00;0.70;;;9.40;99.90;;;;;;5114883;28;20582;-77
2021/05/25 03:12:34;;;;;;;3.03;0.87;;;9.40;99.90;;;;;;5098239;28;20659;-77
2021/05/25 03:15:00;;;;;;;1.03;0.73;;;9.30;99.90;;;;;;5115239;28;20195;-77
2021/05/25 03:17:25;;;;;;;1.13;0.70;;;9.40;99.90;;;;;;5081151;28;20263;-77
2021/05/25 03:19:52;;;;;;;2.43;0.83;;;9.40;99.90;;;;;;5097827;28;20189;-77
2021/05/25 03:22:18;;;;;;;0.70;0.70;;;9.40;99.90;;;;;;5098735;28;20229;-77
2021/05/25 03:24:44;;;;;;;0.90;0.70;;;9.40;99.90;;;;;;5097799;28;20191;-77
2021/05/25 03:27:10;;;;;;;0.83;0.80;;;9.40;99.90;;;;;;5097741;28;20198;-77
2021/05/25 03:29:36;;;;;;;0.77;0.70;;;9.40;99.90;;;;;;5086078;28;20685;-77
2021/05/25 03:32:02;;;;;;;0.70;0.60;;;9.40;99.90;;;;;;5061083;28;20184;-77
2021/05/25 03:34:28;;;;;;;1.40;0.80;;;9.50;99.90;;;;;;5093373;28;20261;-77
2021/05/25 03:36:54;;;;;;;0.73;0.70;;;9.40;99.90;;;;;;5094127;28;20206;-77
2021/05/25 03:39:22;;;;;;;1.00;0.70;;;9.50;99.90;;;;;;5060558;28;20565;-77
2021/05/25 03:41:48;;;;;;;1.97;0.83;;;9.50;99.90;;;;;;5060948;28;20538;-77
2021/05/25 03:44:14;;;;;;;0.83;0.80;;;9.50;99.90;;;;;;5076991;28;20173;-77
2021/05/25 03:46:43;;;;;;;1.40;0.60;;;9.50;99.90;;;;;;5094148;28;20170;-77
2021/05/25 03:49:09;;;;;;;1.47;0.77;;;9.50;99.90;;;;;;5076678;28;20207;-77
2021/05/25 03:51:34;;;;;;;0.63;0.63;;;9.50;99.90;;;;;;5094986;28;20276;-77
2021/05/25 03:54:05;;;;;;;0.70;0.70;;;9.50;99.90;;;;;;5060337;28;20177;-77
2021/05/25 03:56:34;;;;;;;2.80;0.70;;;9.50;99.90;;;;;;5086660;28;20173;-77
2021/05/25 03:59:00;;;;;;;1.13;0.70;;;9.50;99.90;;;;;;5073916;28;20189;-78
2021/05/25 04:01:26;;;;;;;0.87;0.70;;;9.50;99.90;;;;;;5079386;28;20204;-79
2021/05/25 04:03:56;;;;;;;1.10;1.00;;;9.50;99.90;;;;;;5078901;28;20183;-80
2021/05/25 04:06:23;;;;;;;0.97;0.87;;;9.60;99.90;;;;;;5080314;28;20200;-79
2021/05/25 04:08:49;;;;;;;1.83;0.70;;;9.50;99.90;;;;;;5084123;28;20200;-79
2021/05/25 04:11:14;;;;;;;1.47;1.03;;;9.50;99.90;;;;;;5085721;28;20589;-80
2021/05/25 04:13:40;;;;;;;0.80;0.70;;;9.50;99.90;;;;;;5105131;28;20173;-80
2021/05/25 04:16:11;;;;;;;1.87;0.90;;;9.50;99.90;;;;;;5086152;28;20176;-79
2021/05/25 04:18:36;;;;;;;1.70;0.80;;;9.50;99.90;;;;;;5069335;28;20169;-80
2021/05/25 04:21:02;;;;;;;2.03;0.77;;;9.50;99.90;;;;;;5086343;28;20203;-79
2021/05/25 04:23:27;;;;;;;1.70;1.00;;;9.60;99.90;;;;;;5085679;28;20192;-78
2021/05/25 04:25:53;;;;;;;1.47;0.80;;;9.60;99.90;;;;;;5103114;28;20173;-80
2021/05/25 04:28:18;;;;;;;2.23;0.70;;;9.70;99.90;;;;;;5086386;28;20196;-80
2021/05/25 04:34:06;;;;;;;1.97;1.00;;;9.70;99.90;;;;;;5105851;28;20185;-79
2021/05/25 04:36:32;;;;;;;1.13;0.77;;;9.80;99.90;;;;;;5088183;28;20178;-79
2021/05/25 04:38:57;;;;;;;0.73;0.57;;;9.80;99.90;;;;;;5087664;28;20216;-79
2021/05/25 04:41:23;;;;;;;0.73;0.60;;;9.90;99.90;;;;;;5084259;28;20199;-78
2021/05/25 04:43:48;;;;;;;0.50;0.50;;;10.00;99.90;;;;;;5077670;28;20184;-80
2021/05/25 04:46:14;;;;;;;0.70;0.57;;;10.00;99.90;;;;;;5094703;28;20640;-79
2021/05/25 04:48:39;;;;;;;0.70;0.70;;;10.10;99.90;;;;;;5076722;28;20175;-80
2021/05/25 04:51:05;;;;;;;0.50;0.50;;;10.00;99.90;;;;;;5076420;28;20578;-78
2021/05/25 04:53:32;;;;;;;0.47;0.47;;;10.00;99.90;;;;;;5076628;28;20246;-78
2021/05/25 04:56:01;;;;;;;1.27;0.60;;;10.00;99.90;;;;;;5076252;28;20175;-77
2021/05/25 04:58:27;;;;;;;1.27;0.40;;;10.00;99.90;;;;;;5076260;28;20492;-78
2021/05/25 05:00:52;;;;;;;1.33;0.60;;;9.90;99.90;;;;;;5075489;28;20286;-77
2021/05/25 05:03:18;;;;;;;1.67;0.50;;;9.90;99.90;;;;;;5069425;28;20186;-78
2021/05/25 05:05:43;;;;;;;1.33;0.50;;;10.00;99.90;;;;;;5064306;28;20191;-77
2021/05/25 05:08:09;;;;;;;1.70;0.50;;;10.10;99.90;;;;;;5082968;28;20200;-77
2021/05/25 05:10:34;;;;;;;0.50;0.43;;;10.20;99.90;;;;;;5049981;28;20242;-78
2021/05/25 05:13:08;;;;;;;0.70;0.50;;;10.20;99.90;;;;;;5072554;28;20219;-78
2021/05/25 05:15:34;;;;;;;0.83;0.50;;;10.30;99.90;;;;;;5056349;28;20176;-77
2021/05/25 05:18:01;;;;;;;0.70;0.50;;;10.40;99.90;;;;;;5055203;28;20173;-77
2021/05/25 05:20:27;;;;;;;1.10;0.60;;;10.30;99.90;;;;;;5055326;28;20231;-78
2021/05/25 05:22:53;;;;;;;0.93;0.50;;;10.40;99.90;;;;;;5058327;28;20716;-78
2021/05/25 05:25:20;;;;;;;0.67;0.50;;;10.50;99.90;;;;;;5065224;28;20257;-78
2021/05/25 05:27:45;;;;;;;1.00;0.60;;;10.60;99.90;;;;;;5064247;28;20195;-78
2021/05/25 05:30:11;;;;;;;0.50;0.50;;;10.60;99.90;;;;;;5053685;28;20240;-78
2021/05/25 05:32:37;;;;;;;0.80;0.53;;;10.60;99.90;;;;;;5071550;28;20186;-78
2021/05/25 05:35:05;;;;;;;0.83;0.50;;;10.60;99.90;;;;;;5071405;28;20191;-78
2021/05/25 05:37:31;;;;;;;0.30;0.30;;;10.50;99.90;;;;;;5055330;28;20618;-78
2021/05/25 05:39:58;;;;;;;0.47;0.47;;;10.50;99.90;;;;;;5066461;28;20247;-77
2021/05/25 05:42:24;;;;;;;0.30;0.30;;;10.60;99.90;;;;;;5074518;28;20308;-77
2021/05/25 05:44:50;;;;;;;0.73;0.60;;;11.00;99.90;;;;;;5056020;28;20253;-78
2021/05/25 05:47:15;;;;;;;0.80;0.47;;;11.20;99.90;;;;;;5038725;28;20206;-78
2021/05/25 05:49:41;;;;;;;0.57;0.40;;;11.20;99.90;;;;;;5037873;28;20212;-78
2021/05/25 05:52:07;;;;;;;0.50;0.50;;;11.30;99.90;;;;;;5071472;28;20450;-77
2021/05/25 05:54:32;;;;;;;0.40;0.40;;;11.40;99.90;;;;;;5054963;28;20645;-78
2021/05/25 05:56:58;;;;;;;0.60;0.50;;;11.20;99.90;;;;;;5038634;28;20174;-78
2021/05/25 05:59:24;;;;;;;0.67;0.47;;;10.90;99.90;;;;;;5054801;28;20249;-79
2021/05/25 06:01:49;;;;;;;0.70;0.50;;;10.80;99.90;;;;;;5070891;28;20588;-78
2021/05/25 06:04:15;;;;;;;1.93;0.60;;;10.60;99.90;;;;;;5054866;28;20257;-77
2021/05/25 06:06:41;;;;;;;0.60;0.40;;;10.60;99.90;;;;;;5054581;28;20660;-78
2021/05/25 06:09:07;;;;;;;1.07;0.80;;;10.60;99.90;;;;;;5070948;28;20203;-78
2021/05/25 06:11:32;;;;;;;0.57;0.57;;;10.50;99.90;;;;;;5072018;28;20681;-78
2021/05/25 06:13:59;;;;;;;0.87;0.60;;;10.40;99.90;;;;;;5056004;28;20601;-78
2021/05/25 06:16:24;;;;;;;1.43;0.60;;;10.30;99.90;;;;;;5055622;28;20553;-78
2021/05/25 06:18:50;;;;;;;2.40;0.67;;;10.40;99.90;;;;;;5055377;28;20252;-78
2021/05/25 06:21:15;;;;;;;0.47;0.47;;;10.50;99.90;;;;;;5071638;28;20665;-78
2021/05/25 06:23:41;;;;;;;0.70;0.63;;;10.60;99.90;;;;;;5055776;28;20668;-78
2021/05/25 06:26:07;;;;;;;0.50;0.40;;;10.70;99.90;;;;;;5038908;28;20222;-78
2021/05/25 06:28:33;;;;;;;0.60;0.53;;;10.80;99.90;;;;;;5072273;28;20660;-78
2021/05/25 06:30:58;;;;;;;0.90;0.53;;;10.80;99.90;;;;;;5087840;28;20705;-77
2021/05/25 06:33:24;;;;;;;0.60;0.57;;;10.80;99.90;;;;;;5117855;28;20244;-81
2021/05/25 06:35:50;;;;;;;0.40;0.40;;;10.70;99.90;;;;;;5084158;28;20627;-80
2021/05/25 06:38:16;;;;;;;0.77;0.50;;;10.70;99.90;;;;;;5082400;28;20186;-81
2021/05/25 06:40:43;;;;;;;0.93;0.60;;;10.80;99.90;;;;;;5067165;28;20578;-82
2021/05/25 06:43:08;;;;;;;0.67;0.60;;;10.80;99.90;;;;;;5060010;28;20183;-82
2021/05/25 06:45:34;;;;;;;0.67;0.50;;;10.80;99.90;;;;;;5059864;28;20198;-79
2021/05/25 06:47:59;;;;;;;1.03;0.70;;;10.90;99.90;;;;;;5082660;28;20645;-79
2021/05/25 06:50:25;;;;;;;1.33;0.60;;;11.00;99.90;;;;;;5054190;28;20561;-78
2021/05/25 06:52:51;;;;;;;0.70;0.60;;;11.30;99.90;;;;;;5066090;28;20549;-78
2021/05/25 06:55:16;;;;;;;1.07;0.70;;;11.50;99.90;;;;;;5042944;28;20192;-78
2021/05/25 06:57:42;;;;;;;0.67;0.60;;;11.50;99.90;;;;;;5077739;28;20186;-79
2021/05/25 07:00:08;;;;;;;0.80;0.80;;;11.40;99.90;;;;;;5078638;28;20286;-81
2021/05/25 07:02:34;;;;;;;1.27;0.80;;;11.30;99.90;;;;;;5077676;28;20192;-80
2021/05/25 07:05:01;;;;;;;1.53;0.97;;;11.30;99.90;;;;;;5041055;28;20187;-80
2021/05/25 07:07:28;;;;;;;0.70;0.70;;;11.10;99.90;;;;;;5040312;28;20213;-85
2021/05/25 07:09:54;;;;;;;0.70;0.70;;;10.90;99.90;;;;;;5056052;28;20216;-85
2021/05/25 07:12:20;;;;;;;0.90;0.77;;;10.80;99.90;;;;;;5039710;28;20175;-82
2021/05/25 07:14:46;;;;;;;1.23;0.80;;;10.60;99.90;;;;;;5039660;28;20203;-82
2021/05/25 07:17:12;;;;;;;1.90;0.80;;;10.60;99.90;;;;;;5056801;28;20646;-79
2021/05/25 07:19:38;;;;;;;2.37;0.60;;;10.70;99.90;;;;;;5090993;28;20285;-79
2021/05/25 07:22:04;;;;;;;0.60;0.60;;;10.70;99.90;;;;;;5074048;28;20218;-79
2021/05/25 07:24:32;;;;;;;0.60;0.60;;;10.80;99.90;;;;;;5040829;28;20610;-79
2021/05/25 07:26:57;;;;;;;0.67;0.67;;;10.90;99.90;;;;;;5041500;28;20591;-79
2021/05/25 07:29:23;;;;;;;1.57;0.70;;;10.90;99.90;;;;;;5040597;28;20772;-79
2021/05/25 07:31:49;;;;;;;1.23;0.70;;;10.90;99.90;;;;;;5057520;28;20172;-80
2021/05/25 07:34:15;;;;;;;1.37;0.93;;;10.90;99.90;;;;;;5058797;28;20171;-80
2021/05/25 07:36:40;;;;;;;0.80;0.80;;;10.90;99.90;;;;;;5057695;28;20176;-79
2021/05/25 07:39:06;;;;;;;0.70;0.70;;;11.00;99.90;;;;;;5039345;28;20212;-79
2021/05/25 07:41:32;;;;;;;1.63;0.87;;;11.10;99.90;;;;;;5040819;28;20658;-79
2021/05/25 07:43:58;;;;;;;0.73;0.73;;;11.30;99.90;;;;;;5073631;28;20597;-81
2021/05/25 07:46:25;;;;;;;2.63;1.03;;;11.30;99.90;;;;;;5058117;28;20176;-79
2021/05/25 07:48:52;;;;;;;0.90;0.87;;;11.20;99.90;;;;;;5039523;28;20694;-80
2021/05/25 07:51:17;;;;;;;0.90;0.80;;;10.90;99.90;;;;;;5039518;28;20201;-80
2021/05/25 07:53:43;;;;;;;0.83;0.70;;;10.80;99.90;;;;;;5041693;28;20602;-80
2021/05/25 07:56:09;;;;;;;1.20;0.93;;;10.60;99.90;;;;;;5061543;28;20182;-81
2021/05/25 07:58:34;;;;;;;1.70;1.07;;;10.50;99.90;;;;;;5059998;28;20190;-80
2021/05/25 08:01:00;;;;;;;0.97;0.87;;;10.40;99.90;;;;;;5043621;28;20206;-80
2021/05/25 08:03:26;;;;;;;0.97;0.90;;;10.30;99.90;;;;;;5078906;28;20178;-80
2021/05/25 08:05:51;;;;;;;1.63;0.97;;;10.30;99.90;;;;;;5044444;28;20601;-79
2021/05/25 08:08:17;;;;;;;1.30;1.10;;;10.40;99.90;;;;;;5043751;28;20212;-79
2021/05/25 08:10:43;;;;;;;0.83;0.70;;;10.50;99.90;;;;;;5059616;28;20239;-80
2021/05/25 08:13:08;;;;;;;2.03;1.10;;;10.30;99.90;;;;;;5060499;28;20199;-80
2021/05/25 08:15:36;;;;;;;2.30;1.20;;;10.20;99.90;;;;;;5076143;28;20203;-80
2021/05/25 08:18:15;;;;;;;1.30;0.80;;;10.20;99.90;;;;;;5043876;28;20182;-80
2021/05/25 08:20:41;;;;;;;0.77;0.77;;;10.00;99.90;;;;;;5080740;28;20208;-79
2021/05/25 08:23:09;;;;;;;1.00;0.80;;;9.80;99.90;;;;;;5043581;28;20820;-79
2021/05/25 08:25:35;;;;;;;0.93;0.87;;;9.70;99.90;;;;;;5045022;28;20184;-79
2021/05/25 08:28:02;;;;;;;1.13;1.00;;;9.60;99.90;;;;;;5048374;28;20175;-80
2021/05/25 08:30:29;;;;;;;1.10;1.00;;;9.60;99.90;;;;;;5047360;28;20211;-80
2021/05/25 08:32:55;;;;;;;1.63;1.10;;;9.70;99.90;;;;;;5064161;28;20170;-80
2021/05/25 08:35:21;;;;;;;1.27;1.10;;;9.80;99.90;;;;;;5080154;28;20228;-79
2021/05/25 08:37:56;;;;;;;1.30;1.10;;;10.10;99.90;;;;;;5048322;28;20277;-81
2021/05/25 08:40:22;;;;;;;1.60;1.37;;;10.40;99.90;;;;;;5051027;28;20205;-80
2021/05/25 08:42:48;;;;;;;1.80;1.37;;;10.70;99.90;;;;;;5067695;28;20225;-80
2021/05/25 08:45:14;;;;;;;1.60;1.50;;;11.00;99.90;;;;;;5061032;28;20173;-82
2021/05/25 08:47:40;;;;;;;1.53;1.33;;;11.20;99.90;;;;;;5041665;28;20672;-76
2021/05/25 08:50:09;;;;;;;1.40;1.10;;;11.50;99.90;;;;;;5056848;28;20567;-78
2021/05/25 08:52:34;;;;;;;1.00;0.90;;;11.50;99.90;;;;;;5059887;28;20205;-78
2021/05/25 08:55:00;;;;;;;1.20;1.10;;;11.40;99.90;;;;;;5045625;28;20176;-78
2021/05/25 08:57:26;;;;;;;1.30;1.20;;;11.20;99.90;;;;;;5059882;28;20205;-80
2021/05/25 08:59:51;;;;;;;1.10;1.00;;;11.10;99.90;;;;;;5056275;28;20190;-78
2021/05/25 09:02:17;;;;;;;0.87;0.87;;;11.00;99.90;;;;;;5074405;28;20240;-77
2021/05/25 09:05:11;;;;;;;0.80;0.70;;;10.70;99.90;;;;;;5059393;28;20260;-77
2021/05/25 09:07:52;;;;;;;1.00;0.90;;;10.50;99.90;;;;;;5081688;28;20644;-77
2021/05/25 09:10:20;;;;;;;0.73;0.73;;;10.60;99.90;;;;;;5082409;28;20678;-77
2021/05/25 09:12:50;;;;;;;0.90;0.90;;;10.50;99.90;;;;;;5066334;28;20182;-78
2021/05/25 09:15:29;;;;;;;0.80;0.60;;;10.70;99.90;;;;;;5064491;28;20169;-77
2021/05/25 09:18:05;;;;;;;0.87;0.87;;;10.90;99.90;;;;;;5051316;28;20170;-78
2021/05/25 09:20:51;;;;;;;1.00;0.77;;;11.20;99.90;;;;;;5068355;28;20283;-78
2021/05/25 09:23:18;;;;;;;1.23;0.77;;;11.70;99.90;;;;;;5055884;28;20196;-77
2021/05/25 09:25:59;;;;;;;0.70;0.70;;;11.90;99.90;;;;;;5081919;28;20186;-77
2021/05/25 09:28:25;;;;;;;1.10;1.00;;;12.10;99.90;;;;;;5050383;28;20671;-77
2021/05/25 09:30:51;;;;;;;0.80;0.80;;;12.00;99.90;;;;;;5054758;28;20207;-78
2021/05/25 09:33:17;;;;;;;1.00;0.70;;;12.00;99.90;;;;;;5077650;28;20238;-77
2021/05/25 09:35:48;;;;;;;0.60;0.60;;;11.70;99.90;;;;;;5080668;28;20663;-76
2021/05/25 09:38:14;;;;;;;0.77;0.70;;;11.50;99.90;;;;;;5073428;28;20186;-76
2021/05/25 09:40:42;;;;;;;1.13;0.90;;;11.40;99.90;;;;;;5106581;28;20206;-77
2021/05/25 09:43:24;;;;;;;1.07;0.80;;;11.40;99.90;;;;;;5073648;28;20205;-76
2021/05/25 09:46:03;;;;;;;1.47;1.03;;;11.40;99.90;;;;;;5059970;28;20173;-77
2021/05/25 09:48:33;;;;;;;1.30;1.00;;;11.30;99.90;;;;;;5106873;28;20178;-76
2021/05/25 09:51:01;;;;;;;1.93;1.33;;;11.40;99.90;;;;;;5096278;28;20252;-77
2021/05/25 09:53:31;;;;;;;0.97;0.90;;;11.40;99.90;;;;;;5066767;28;20176;-78
2021/05/25 09:55:58;;;;;;;2.13;1.47;;;11.50;99.90;;;;;;5055225;28;20183;-77
2021/05/25 09:58:44;;;;;;;1.37;1.27;;;11.60;99.90;;;;;;5054879;28;20172;-77
2021/05/25 10:01:10;;;;;;;1.23;1.13;;;11.90;99.90;;;;;;5056721;28;20227;-77
2021/05/25 10:03:48;;;;;;;1.50;1.33;;;12.10;99.90;;;;;;5055367;28;20636;-76
2021/05/25 10:06:13;;;;;;;1.50;1.20;;;12.20;99.90;;;;;;5055722;28;20185;-76
2021/05/25 10:08:41;;;;;;;1.40;1.23;;;12.30;99.90;;;;;;5054311;28;20302;-76
2021/05/25 10:11:07;;;;;;;1.43;1.17;;;12.30;99.90;;;;;;5057026;28;20295;-76
2021/05/25 10:13:33;;;;;;;1.93;1.33;;;12.50;99.90;;;;;;5046201;28;20205;-76
2021/05/25 10:15:58;;;;;;;2.10;1.33;;;12.80;99.90;;;;;;5047849;28;20212;-76
2021/05/25 10:21:00;;;;;;;1.30;1.20;;;12.80;99.90;;;;;;5090708;28;20679;-78
2021/05/25 10:23:29;;;;;;;1.60;1.30;;;12.80;99.90;;;;;;5058065;28;20170;-76
2021/05/25 10:25:55;;;;;;;1.60;1.47;;;12.90;99.90;;;;;;5068687;28;20306;-76
2021/05/25 10:28:20;;;;;;;2.70;1.57;;;12.80;99.90;;;;;;5062748;28;20181;-77
2021/05/25 10:30:49;;;;;;;1.30;1.20;;;12.60;99.90;;;;;;5064019;28;20208;-77
2021/05/25 10:33:23;;;;;;;1.93;1.73;;;12.50;99.90;;;;;;5077977;28;20180;-77
2021/05/25 10:35:49;;;;;;;1.40;1.30;;;12.50;99.90;;;;;;5084705;28;20278;-77
2021/05/25 10:38:15;;;;;;;1.23;1.13;;;12.90;99.90;;;;;;5100344;28;20195;-76
2021/05/25 10:40:44;;;;;;;1.30;1.20;;;13.10;99.90;;;;;;5067642;28;20570;-77
2021/05/25 10:43:31;;;;;;;1.50;1.40;;;13.40;99.90;;;;;;5085209;28;20185;-77
2021/05/25 10:49:27;;;;;;;1.47;1.30;;;13.50;99.90;;;;;;5102758;28;20217;-77
2021/05/25 10:51:52;;;;;;;2.30;1.40;;;13.70;99.90;;;;;;5057566;28;20170;-77
2021/05/25 10:54:26;;;;;;;1.97;1.20;;;13.80;99.90;;;;;;5072758;28;20175;-77
2021/05/25 10:56:52;;;;;;;1.20;1.10;;;14.00;99.90;;;;;;5074401;28;20178;-77
2021/05/25 10:59:19;;;;;;;1.43;1.20;;;14.00;99.90;;;;;;5073786;28;20195;-77
2021/05/25 11:01:52;;;;;;;2.60;1.00;;;14.20;99.90;;;;;;5074178;28;20173;-77
2021/05/25 11:04:18;;;;;;;1.30;1.17;;;14.50;99.90;;;;;;5074983;28;20637;-76
2021/05/25 11:06:45;;;;;;;1.37;1.27;;;14.60;99.90;;;;;;5074019;28;20276;-77
2021/05/25 11:09:21;;;;;;;1.37;1.03;;;14.70;99.90;;;;;;5058379;28;20642;-77
2021/05/25 11:11:46;;;;;;;2.67;1.20;;;14.70;99.90;;;;;;5052679;28;20193;-77
2021/05/25 11:14:13;;;;;;;1.07;0.97;;;14.70;99.90;;;;;;5053719;28;20255;-77
2021/05/25 11:16:40;;;;;;;2.67;1.20;;;14.70;99.90;;;;;;5070659;28;20180;-77
2021/05/25 11:19:19;;;;;;;1.00;0.83;;;14.80;99.90;;;;;;5070148;28;20173;-77
2021/05/25 11:27:01;;;;;;;1.33;1.10;;;14.60;99.90;;;;;;5070608;28;20177;-76
2021/05/25 11:29:28;;;;;;;1.13;0.60;;;14.20;99.90;;;;;;5073111;28;20288;-76
2021/05/25 11:31:56;;;;;;;0.20;0.20;;;13.80;99.90;;;;;;5073828;28;20173;-76
2021/05/25 11:34:23;;;;;;;0.30;0.30;;;13.00;99.90;;;;;;5073887;28;20178;-76
2021/05/25 11:37:02;;;;;;;0.20;0.20;;;12.20;99.90;;;;;;5057070;28;20177;-77
2021/05/25 11:39:29;;;;;;;0.60;0.40;;;11.60;99.90;;;;;;5073298;28;20209;-76
2021/05/25 11:41:56;;;;;;;0.40;0.30;;;11.10;99.90;;;;;;5056930;28;20183;-77
2021/05/25 11:48:09;;;;;;;0.30;0.30;;;10.60;99.90;;;;;;5040753;28;20259;-76
2021/05/25 11:50:38;;;;;;;0.40;0.40;;;10.40;99.90;;;;;;5019267;28;20224;-76
2021/05/25 11:53:04;;;;;;;0.30;0.30;;;10.30;99.90;;;;;;5057652;28;20193;-76
2021/05/25 11:55:30;;;;;;;2.07;0.43;;;10.10;99.90;;;;;;5090333;28;20231;-77
2021/05/25 11:57:55;;;;;;;0.40;0.40;;;10.00;99.90;;;;;;5073732;28;20219;-77
2021/05/25 12:03:43;;;;;;;1.03;0.40;;;9.80;99.90;;;;;;5075231;28;20174;-77
2021/05/25 12:06:15;;;;;;;0.43;0.40;;;9.80;99.90;;;;;;5090723;28;20182;-76
2021/05/25 12:08:40;;;;;;;0.50;0.50;;;9.70;99.90;;;;;;5090194;28;20568;-77
2021/05/25 12:11:06;;;;;;;1.43;0.60;;;9.70;99.90;;;;;;5090127;28;20209;-76
2021/05/25 12:13:32;;;;;;;0.97;0.50;;;9.70;99.90;;;;;;5093318;28;20646;-76
2021/05/25 12:15:57;;;;;;;0.60;0.50;;;9.90;99.90;;;;;;5076406;28;20708;-77
2021/05/25 12:18:25;;;;;;;0.60;0.60;;;10.00;99.90;;;;;;5056376;28;20647;-76
2021/05/25 12:20:51;;;;;;;0.70;0.60;;;10.30;99.90;;;;;;5074504;28;20196;-78
2021/05/25 12:23:19;;;;;;;1.80;0.50;;;10.50;99.90;;;;;;5078138;28;20196;-78
2021/05/25 12:25:50;;;;;;;0.70;0.60;;;10.80;99.90;;;;;;5079621;28;20196;-79
2021/05/25 12:28:18;;;;;;;1.00;0.60;;;11.20;99.90;;;;;;5081090;28;20170;-76
2021/05/25 12:30:49;;;;;;;1.90;0.60;;;11.40;99.90;;;;;;5040705;28;20216;-77
2021/05/25 12:33:30;;;;;;;0.50;0.50;;;11.30;99.90;;;;;;5070449;28;20216;-76
2021/05/25 12:36:29;;;;;;;2.00;0.70;;;11.20;99.90;;;;;;5077472;28;20641;-76
2021/05/25 12:39:02;;;;;;;1.33;0.97;;;11.20;99.90;;;;;;5097577;28;20713;-76
2021/05/25 12:41:47;;;;;;;1.00;0.90;;;11.10;99.90;;;;;;5094167;28;20296;-77
2021/05/25 12:44:15;;;;;;;0.83;0.70;;;11.10;99.90;;;;;;5048280;28;20559;-77
2021/05/25 12:46:54;;;;;;;0.80;0.80;;;11.00;99.90;;;;;;5062722;28;20257;-81
2021/05/25 12:49:27;;;;;;;1.10;0.80;;;10.80;99.90;;;;;;5073078;28;20207;-77
2021/05/25 12:51:53;;;;;;;2.30;1.20;;;10.60;99.90;;;;;;5059738;28;20179;-77
2021/05/25 12:57:47;;;;;;;1.10;0.90;;;10.30;99.90;;;;;;5072976;28;20223;-77
2021/05/25 13:00:16;;;;;;;1.13;0.80;;;10.10;99.90;;;;;;5063349;28;20210;-76
2021/05/25 13:02:43;;;;;;;0.60;0.60;;;9.90;99.90;;;;;;5102945;28;20267;-78
2021/05/25 13:05:11;;;;;;;1.10;0.80;;;9.80;99.90;;;;;;5098009;28;20178;-78
2021/05/25 13:07:53;;;;;;;1.33;0.70;;;9.90;99.90;;;;;;5059807;28;20221;-77
2021/05/25 13:10:25;;;;;;;0.60;0.60;;;10.10;99.90;;;;;;5092047;28;20285;-76
2021/05/25 13:12:50;;;;;;;1.20;0.57;;;10.20;99.90;;;;;;5056385;28;20537;-77
2021/05/25 13:15:16;;;;;;;0.60;0.60;;;10.30;99.90;;;;;;5069624;28;20187;-77
2021/05/25 13:17:52;;;;;;;1.00;0.90;;;10.40;99.90;;;;;;5075854;28;20179;-77